Kansas City, Missouri
Traffic Map
Current Weather Conditions
Kansas City, Missouri
Clear
Clear
42°
Feels Like: 35°
Wind Chill: 35° Ceiling: Unl
Heat Index: 42° Visibility: 10mi
Dew Point: 31° Wind: 13mph
Humidity: 65% Direction: 190° (S)
Pressure: 30.11in Gusts: 0mph
Raw Report DataKMKC 181054Z 19011KT 10SM CLR 06/M01 A3011 RMK AO2 SLP199 T00561006
Traffic Incident Summary
Active as of:
Severity:
Category:
InformationThere was an issue retrieving the traffic information for this location. Please try a different location or try again shortly.
Advertisements